Fort William, United Kingdom
Current Conditions -  °F | °C
As of 11:50 PM on Friday 19 Dec 2014 (Local Time) from EGPE Reporting Station
Rain Showers Rain Showers  
Wind Chill: -2°   Ceiling: Unl
Heat Index:   Visibility: 6mi
Dew Point:   Wind: 24mph
Humidity: 87%   Direction: 270°W
Pressure: 29.62"   Gusts: 40mph
Location:  56.82°N, 5.11°W
Report Text: EGPE 192350Z AUTO 27021G35KT 9999 VCSH FEW015CB SCT030/// 04/02 Q1003
Loading
Personal Weather Stations






























Interactive Weather Map New forecast layout! Learn more

10-Day Weather Forecast

Advertisements
Track Severe Weather on mobile